sensor_id;sensor_type;location;lat;lon;timestamp;pressure;altitude;pressure_sealevel;temperature;humidity
12664;BME280;6396;58.490;15.528;2023-07-30T00:00:08;99447.81;;;18.53;100.00
12664;BME280;6396;58.490;15.528;2023-07-30T00:02:35;99536.13;;;18.86;100.00
12664;BME280;6396;58.490;15.528;2023-07-30T00:05:02;99453.03;;;18.09;100.00
12664;BME280;6396;58.490;15.528;2023-07-30T00:07:29;99357.78;;;17.97;100.00
12664;BME280;6396;58.490;15.528;2023-07-30T00:09:56;99443.88;;;18.35;100.00
12664;BME280;6396;58.490;15.528;2023-07-30T00:12:22;99511.56;;;18.70;100.00
12664;BME280;6396;58.490;15.528;2023-07-30T00:14:49;99199.22;;;17.06;100.00
12664;BME280;6396;58.490;15.528;2023-07-30T00:17:18;99486.41;;;18.72;100.00
12664;BME280;6396;58.490;15.528;2023-07-30T00:19:45;99526.56;;;18.83;100.00
12664;BME280;6396;58.490;15.528;2023-07-30T00:22:12;99144.91;;;16.36;100.00
12664;BME280;6396;58.490;15.528;2023-07-30T00:24:38;99470.16;;;18.41;100.00
12664;BME280;6396;58.490;15.528;2023-07-30T00:27:06;99427.50;;;18.05;100.00
12664;BME280;6396;58.490;15.528;2023-07-30T00:29:32;99543.56;;;18.82;100.00
12664;BME280;6396;58.490;15.528;2023-07-30T00:31:59;99359.16;;;17.78;100.00
12664;BME280;6396;58.490;15.528;2023-07-30T00:34:27;99313.59;;;17.58;100.00
12664;BME280;6396;58.490;15.528;2023-07-30T00:36:54;99543.91;;;18.78;100.00
12664;BME280;6396;58.490;15.528;2023-07-30T00:39:21;99537.00;;;18.86;100.00
12664;BME280;6396;58.490;15.528;2023-07-30T00:41:48;99474.19;;;18.46;100.00
12664;BME280;6396;58.490;15.528;2023-07-30T00:44:16;99571.19;;;18.94;100.00
12664;BME280;6396;58.490;15.528;2023-07-30T00:46:42;99503.38;;;18.60;100.00
12664;BME280;6396;58.490;15.528;2023-07-30T00:49:09;99396.75;;;17.99;100.00
12664;BME280;6396;58.490;15.528;2023-07-30T00:51:37;99534.25;;;18.99;100.00
12664;BME280;6396;58.490;15.528;2023-07-30T00:54:04;99416.72;;;18.17;100.00
12664;BME280;6396;58.490;15.528;2023-07-30T00:56:31;99380.34;;;17.93;100.00
12664;BME280;6396;58.490;15.528;2023-07-30T00:58:58;99480.16;;;18.50;100.00
12664;BME280;6396;58.490;15.528;2023-07-30T01:01:25;99309.56;;;17.52;100.00
12664;BME280;6396;58.490;15.528;2023-07-30T01:03:52;99195.03;;;16.91;100.00
12664;BME280;6396;58.490;15.528;2023-07-30T01:06:19;99465.00;;;18.38;100.00
12664;BME280;6396;58.490;15.528;2023-07-30T01:08:47;99557.06;;;18.81;100.00
12664;BME280;6396;58.490;15.528;2023-07-30T01:11:15;99307.09;;;17.49;100.00
12664;BME280;6396;58.490;15.528;2023-07-30T01:13:42;99550.97;;;18.79;100.00
12664;BME280;6396;58.490;15.528;2023-07-30T01:16:10;99463.09;;;18.16;100.00
12664;BME280;6396;58.490;15.528;2023-07-30T01:18:37;99557.75;;;18.72;100.00
12664;BME280;6396;58.490;15.528;2023-07-30T01:21:06;99585.72;;;18.68;100.00
12664;BME280;6396;58.490;15.528;2023-07-30T01:23:32;99465.56;;;18.19;100.00
12664;BME280;6396;58.490;15.528;2023-07-30T01:26:03;98885.41;;;14.86;100.00
12664;BME280;6396;58.490;15.528;2023-07-30T01:28:36;99513.94;;;18.51;100.00
12664;BME280;6396;58.490;15.528;2023-07-30T01:31:05;99422.47;;;17.89;100.00
12664;BME280;6396;58.490;15.528;2023-07-30T01:33:33;99523.53;;;18.53;100.00
12664;BME280;6396;58.490;15.528;2023-07-30T01:36:01;99518.81;;;18.57;100.00
12664;BME280;6396;58.490;15.528;2023-07-30T01:38:30;99535.94;;;18.54;100.00
12664;BME280;6396;58.490;15.528;2023-07-30T01:40:57;99520.88;;;18.53;100.00
12664;BME280;6396;58.490;15.528;2023-07-30T01:43:24;99251.66;;;16.95;100.00
12664;BME280;6396;58.490;15.528;2023-07-30T01:45:50;99524.16;;;18.57;100.00
12664;BME280;6396;58.490;15.528;2023-07-30T01:48:17;99284.38;;;17.20;100.00
12664;BME280;6396;58.490;15.528;2023-07-30T01:50:44;99522.09;;;18.60;100.00
12664;BME280;6396;58.490;15.528;2023-07-30T01:53:12;99352.53;;;17.60;100.00
12664;BME280;6396;58.490;15.528;2023-07-30T01:55:40;99411.03;;;17.87;100.00
12664;BME280;6396;58.490;15.528;2023-07-30T01:58:09;99149.91;;;16.05;100.00
12664;BME280;6396;58.490;15.528;2023-07-30T02:00:35;99524.94;;;18.70;100.00
12664;BME280;6396;58.490;15.528;2023-07-30T02:03:02;99091.16;;;15.95;100.00
12664;BME280;6396;58.490;15.528;2023-07-30T02:05:29;99514.97;;;18.72;100.00
12664;BME280;6396;58.490;15.528;2023-07-30T02:07:56;99532.97;;;18.70;100.00
12664;BME280;6396;58.490;15.528;2023-07-30T02:10:23;99520.53;;;18.69;100.00
12664;BME280;6396;58.490;15.528;2023-07-30T02:12:52;99571.47;;;18.67;100.00
12664;BME280;6396;58.490;15.528;2023-07-30T02:15:19;99402.16;;;17.87;100.00
12664;BME280;6396;58.490;15.528;2023-07-30T02:17:45;99226.03;;;16.81;100.00
12664;BME280;6396;58.490;15.528;2023-07-30T02:20:12;99519.19;;;18.63;100.00
12664;BME280;6396;58.490;15.528;2023-07-30T02:22:39;99153.69;;;16.26;100.00
12664;BME280;6396;58.490;15.528;2023-07-30T02:25:06;99517.25;;;18.65;100.00
12664;BME280;6396;58.490;15.528;2023-07-30T02:27:33;99516.41;;;18.65;100.00
12664;BME280;6396;58.490;15.528;2023-07-30T02:30:01;99455.63;;;18.32;100.00
12664;BME280;6396;58.490;15.528;2023-07-30T02:32:28;99407.78;;;17.95;100.00
12664;BME280;6396;58.490;15.528;2023-07-30T02:34:55;99435.28;;;18.08;100.00
12664;BME280;6396;58.490;15.528;2023-07-30T02:37:22;99379.72;;;17.89;100.00
12664;BME280;6396;58.490;15.528;2023-07-30T02:39:49;99417.38;;;17.97;100.00
12664;BME280;6396;58.490;15.528;2023-07-30T02:42:15;99437.78;;;17.98;100.00
12664;BME280;6396;58.490;15.528;2023-07-30T02:44:42;99494.66;;;18.35;100.00
12664;BME280;6396;58.490;15.528;2023-07-30T02:47:10;99482.69;;;18.40;100.00
12664;BME280;6396;58.490;15.528;2023-07-30T02:49:37;99267.50;;;17.09;100.00
12664;BME280;6396;58.490;15.528;2023-07-30T02:52:04;99195.59;;;16.60;100.00
12664;BME280;6396;58.490;15.528;2023-07-30T02:54:31;99279.34;;;17.28;100.00
12664;BME280;6396;58.490;15.528;2023-07-30T02:56:58;99004.44;;;15.68;100.00
12664;BME280;6396;58.490;15.528;2023-07-30T02:59:24;99463.09;;;18.16;100.00
12664;BME280;6396;58.490;15.528;2023-07-30T03:01:51;99266.75;;;17.07;100.00
12664;BME280;6396;58.490;15.528;2023-07-30T03:04:19;99280.59;;;17.12;100.00
12664;BME280;6396;58.490;15.528;2023-07-30T03:06:46;98818.19;;;14.23;100.00
12664;BME280;6396;58.490;15.528;2023-07-30T03:09:13;99055.56;;;15.73;100.00
12664;BME280;6396;58.490;15.528;2023-07-30T03:11:40;99362.97;;;17.63;100.00
12664;BME280;6396;58.490;15.528;2023-07-30T03:14:07;99269.41;;;17.07;100.00
12664;BME280;6396;58.490;15.528;2023-07-30T03:16:33;99491.88;;;18.13;100.00
12664;BME280;6396;58.490;15.528;2023-07-30T03:19:00;99524.41;;;18.54;100.00
12664;BME280;6396;58.490;15.528;2023-07-30T03:21:28;99485.66;;;18.36;100.00
12664;BME280;6396;58.490;15.528;2023-07-30T03:23:55;99425.13;;;17.89;100.00
12664;BME280;6396;58.490;15.528;2023-07-30T03:26:22;99292.50;;;17.19;100.00
12664;BME280;6396;58.490;15.528;2023-07-30T03:28:49;99414.31;;;17.91;100.00
12664;BME280;6396;58.490;15.528;2023-07-30T03:31:17;99214.47;;;16.57;100.00
12664;BME280;6396;58.490;15.528;2023-07-30T03:33:44;99343.78;;;17.35;100.00
12664;BME280;6396;58.490;15.528;2023-07-30T03:36:11;99621.41;;;18.56;100.00
12664;BME280;6396;58.490;15.528;2023-07-30T03:38:42;99304.94;;;16.71;100.00
12664;BME280;6396;58.490;15.528;2023-07-30T03:41:10;99532.19;;;18.57;100.00
12664;BME280;6396;58.490;15.528;2023-07-30T03:43:36;99584.69;;;18.58;100.00
12664;BME280;6396;58.490;15.528;2023-07-30T03:46:03;99311.53;;;16.78;100.00
12664;BME280;6396;58.490;15.528;2023-07-30T03:48:30;99133.34;;;16.25;100.00
12664;BME280;6396;58.490;15.528;2023-07-30T03:50:57;99312.16;;;17.18;100.00
12664;BME280;6396;58.490;15.528;2023-07-30T03:53:24;99507.84;;;18.25;100.00
12664;BME280;6396;58.490;15.528;2023-07-30T03:55:52;99477.69;;;18.12;100.00
12664;BME280;6396;58.490;15.528;2023-07-30T03:58:19;99445.47;;;17.79;100.00
12664;BME280;6396;58.490;15.528;2023-07-30T04:00:46;99106.00;;;15.87;100.00
12664;BME280;6396;58.490;15.528;2023-07-30T04:03:12;99287.72;;;16.88;100.00
12664;BME280;6396;58.490;15.528;2023-07-30T04:05:39;99123.63;;;16.00;100.00
12664;BME280;6396;58.490;15.528;2023-07-30T04:08:06;99419.97;;;17.75;100.00
12664;BME280;6396;58.490;15.528;2023-07-30T04:10:33;99326.22;;;17.20;100.00
12664;BME280;6396;58.490;15.528;2023-07-30T04:13:01;99101.88;;;16.06;100.00
12664;BME280;6396;58.490;15.528;2023-07-30T04:15:28;99111.69;;;16.06;100.00
12664;BME280;6396;58.490;15.528;2023-07-30T04:17:55;99445.63;;;17.89;100.00
12664;BME280;6396;58.490;15.528;2023-07-30T04:20:21;99366.13;;;17.45;100.00
12664;BME280;6396;58.490;15.528;2023-07-30T04:22:48;99435.44;;;17.83;100.00
12664;BME280;6396;58.490;15.528;2023-07-30T04:25:15;99514.00;;;18.15;100.00
12664;BME280;6396;58.490;15.528;2023-07-30T04:27:42;99352.66;;;17.35;100.00
12664;BME280;6396;58.490;15.528;2023-07-30T04:30:11;99512.13;;;18.28;100.00
12664;BME280;6396;58.490;15.528;2023-07-30T04:32:38;99384.00;;;17.68;100.00
12664;BME280;6396;58.490;15.528;2023-07-30T04:35:05;99291.63;;;17.07;100.00
12664;BME280;6396;58.490;15.528;2023-07-30T04:37:32;99555.69;;;18.64;100.00
12664;BME280;6396;58.490;15.528;2023-07-30T04:39:58;99409.16;;;17.76;100.00
12664;BME280;6396;58.490;15.528;2023-07-30T04:42:25;99574.91;;;18.69;100.00
12664;BME280;6396;58.490;15.528;2023-07-30T04:44:52;99542.44;;;18.74;100.00
12664;BME280;6396;58.490;15.528;2023-07-30T04:47:20;99347.56;;;17.43;100.00
12664;BME280;6396;58.490;15.528;2023-07-30T04:49:47;99505.22;;;18.36;100.00
12664;BME280;6396;58.490;15.528;2023-07-30T04:52:14;99552.53;;;18.70;100.00
12664;BME280;6396;58.490;15.528;2023-07-30T04:54:40;99294.66;;;17.14;100.00
12664;BME280;6396;58.490;15.528;2023-07-30T04:57:07;99431.72;;;17.96;100.00
12664;BME280;6396;58.490;15.528;2023-07-30T04:59:34;99528.41;;;18.48;100.00
12664;BME280;6396;58.490;15.528;2023-07-30T05:02:01;99394.00;;;17.77;100.00
12664;BME280;6396;58.490;15.528;2023-07-30T05:04:29;99463.03;;;18.29;100.00
12664;BME280;6396;58.490;15.528;2023-07-30T05:06:56;99556.56;;;18.76;100.00
12664;BME280;6396;58.490;15.528;2023-07-30T05:09:22;99414.50;;;17.76;100.00
12664;BME280;6396;58.490;15.528;2023-07-30T05:11:49;99437.91;;;17.97;100.00
12664;BME280;6396;58.490;15.528;2023-07-30T05:14:16;99516.50;;;18.52;100.00
12664;BME280;6396;58.490;15.528;2023-07-30T05:16:43;99461.44;;;18.50;100.00
12664;BME280;6396;58.490;15.528;2023-07-30T05:19:10;99541.28;;;18.89;100.00
12664;BME280;6396;58.490;15.528;2023-07-30T05:21:38;99455.41;;;18.35;100.00
12664;BME280;6396;58.490;15.528;2023-07-30T05:24:04;99423.06;;;18.27;100.00
12664;BME280;6396;58.490;15.528;2023-07-30T05:26:31;99151.81;;;16.75;100.00
12664;BME280;6396;58.490;15.528;2023-07-30T05:28:58;99527.44;;;19.06;100.00
12664;BME280;6396;58.490;15.528;2023-07-30T05:31:25;99335.50;;;17.85;100.00
12664;BME280;6396;58.490;15.528;2023-07-30T05:33:52;99460.84;;;18.68;100.00
12664;BME280;6396;58.490;15.528;2023-07-30T05:36:18;99074.34;;;16.42;100.00
12664;BME280;6396;58.490;15.528;2023-07-30T05:38:47;98992.03;;;15.92;100.00
12664;BME280;6396;58.490;15.528;2023-07-30T05:41:14;99190.34;;;17.06;100.00
12664;BME280;6396;58.490;15.528;2023-07-30T05:43:40;98958.97;;;15.47;100.00
12664;BME280;6396;58.490;15.528;2023-07-30T05:46:07;99406.50;;;18.57;100.00
12664;BME280;6396;58.490;15.528;2023-07-30T05:48:34;99290.00;;;17.87;100.00
12664;BME280;6396;58.490;15.528;2023-07-30T05:51:01;99482.69;;;19.08;100.00
12664;BME280;6396;58.490;15.528;2023-07-30T05:53:28;99548.16;;;19.37;100.00
12664;BME280;6396;58.490;15.528;2023-07-30T05:55:56;99406.66;;;18.66;100.00
12664;BME280;6396;58.490;15.528;2023-07-30T05:58:23;99503.13;;;18.98;100.00
12664;BME280;6396;58.490;15.528;2023-07-30T06:00:50;99487.31;;;19.17;100.00
12664;BME280;6396;58.490;15.528;2023-07-30T06:03:17;99525.03;;;19.47;100.00
12664;BME280;6396;58.490;15.528;2023-07-30T06:05:43;99312.88;;;18.24;100.00
12664;BME280;6396;58.490;15.528;2023-07-30T06:08:10;99350.38;;;18.57;100.00
12664;BME280;6396;58.490;15.528;2023-07-30T06:10:37;99339.16;;;18.41;100.00
12664;BME280;6396;58.490;15.528;2023-07-30T06:13:07;99464.56;;;19.34;100.00
12664;BME280;6396;58.490;15.528;2023-07-30T06:15:34;99398.16;;;18.95;100.00
12664;BME280;6396;58.490;15.528;2023-07-30T06:18:01;99521.88;;;19.64;100.00
12664;BME280;6396;58.490;15.528;2023-07-30T06:20:28;99471.72;;;19.33;100.00
12664;BME280;6396;58.490;15.528;2023-07-30T06:22:54;99516.63;;;19.63;100.00
12664;BME280;6396;58.490;15.528;2023-07-30T06:25:21;99452.59;;;19.16;100.00
12664;BME280;6396;58.490;15.528;2023-07-30T06:27:48;99490.84;;;19.40;100.00
12664;BME280;6396;58.490;15.528;2023-07-30T06:30:17;99481.97;;;19.50;100.00
12664;BME280;6396;58.490;15.528;2023-07-30T06:32:43;99542.56;;;19.62;100.00
12664;BME280;6396;58.490;15.528;2023-07-30T06:35:10;99454.44;;;19.26;100.00
12664;BME280;6396;58.490;15.528;2023-07-30T06:37:37;99547.69;;;19.65;100.00
12664;BME280;6396;58.490;15.528;2023-07-30T06:40:05;99355.47;;;18.49;100.00
12664;BME280;6396;58.490;15.528;2023-07-30T06:42:32;99578.47;;;19.82;100.00
12664;BME280;6396;58.490;15.528;2023-07-30T06:44:59;99525.72;;;19.93;100.00
12664;BME280;6396;58.490;15.528;2023-07-30T06:47:27;99529.34;;;20.03;100.00
12664;BME280;6396;58.490;15.528;2023-07-30T06:49:54;99249.72;;;18.34;100.00
12664;BME280;6396;58.490;15.528;2023-07-30T06:52:21;99358.25;;;18.91;100.00
12664;BME280;6396;58.490;15.528;2023-07-30T06:54:54;99455.63;;;19.98;100.00
12664;BME280;6396;58.490;15.528;2023-07-30T06:57:21;99596.75;;;20.42;100.00
12664;BME280;6396;58.490;15.528;2023-07-30T06:59:48;99311.00;;;19.24;100.00
12664;BME280;6396;58.490;15.528;2023-07-30T07:02:15;98816.03;;;16.40;100.00
12664;BME280;6396;58.490;15.528;2023-07-30T07:04:47;99520.22;;;20.69;100.00
12664;BME280;6396;58.490;15.528;2023-07-30T07:07:46;98888.09;;;16.39;100.00
12664;BME280;6396;58.490;15.528;2023-07-30T07:10:17;99144.75;;;18.54;100.00
12664;BME280;6396;58.490;15.528;2023-07-30T07:12:44;99353.19;;;19.74;100.00
12664;BME280;6396;58.490;15.528;2023-07-30T07:15:11;99224.03;;;19.50;100.00
12664;BME280;6396;58.490;15.528;2023-07-30T07:17:37;98968.75;;;18.07;100.00
12664;BME280;6396;58.490;15.528;2023-07-30T07:20:07;99450.41;;;21.11;100.00
12664;BME280;6396;58.490;15.528;2023-07-30T07:22:36;99531.66;;;22.32;100.00
12664;BME280;6396;58.490;15.528;2023-07-30T07:25:03;99514.56;;;22.61;100.00
12664;BME280;6396;58.490;15.528;2023-07-30T07:27:30;99550.47;;;22.41;100.00
12664;BME280;6396;58.490;15.528;2023-07-30T07:29:57;99048.69;;;19.24;100.00
12664;BME280;6396;58.490;15.528;2023-07-30T07:32:24;99409.13;;;21.51;100.00
12664;BME280;6396;58.490;15.528;2023-07-30T07:34:51;99455.81;;;21.69;100.00
12664;BME280;6396;58.490;15.528;2023-07-30T07:37:20;99156.22;;;19.49;100.00
12664;BME280;6396;58.490;15.528;2023-07-30T07:39:46;99378.66;;;20.62;100.00
12664;BME280;6396;58.490;15.528;2023-07-30T07:42:13;99550.66;;;21.51;100.00
12664;BME280;6396;58.490;15.528;2023-07-30T07:44:40;99520.03;;;21.33;100.00
12664;BME280;6396;58.490;15.528;2023-07-30T07:47:09;99461.66;;;20.84;100.00
12664;BME280;6396;58.490;15.528;2023-07-30T07:49:36;99500.69;;;20.88;100.00
12664;BME280;6396;58.490;15.528;2023-07-30T07:52:03;99422.72;;;20.39;100.00
12664;BME280;6396;58.490;15.528;2023-07-30T07:54:31;99505.66;;;20.72;100.00
12664;BME280;6396;58.490;15.528;2023-07-30T07:56:58;99431.63;;;20.08;100.00
12664;BME280;6396;58.490;15.528;2023-07-30T07:59:25;99523.25;;;20.65;100.00
12664;BME280;6396;58.490;15.528;2023-07-30T08:01:53;99207.63;;;18.80;100.00
12664;BME280;6396;58.490;15.528;2023-07-30T08:04:19;99543.53;;;20.58;100.00
12664;BME280;6396;58.490;15.528;2023-07-30T08:06:47;99405.09;;;20.05;100.00
12664;BME280;6396;58.490;15.528;2023-07-30T08:09:14;99567.88;;;20.97;100.00
12664;BME280;6396;58.490;15.528;2023-07-30T08:11:42;99191.91;;;20.00;100.00
12664;BME280;6396;58.490;15.528;2023-07-30T08:14:09;99112.00;;;20.15;100.00
12664;BME280;6396;58.490;15.528;2023-07-30T08:16:36;99402.41;;;21.36;100.00
12664;BME280;6396;58.490;15.528;2023-07-30T08:19:03;99319.88;;;20.89;100.00
12664;BME280;6396;58.490;15.528;2023-07-30T08:21:30;98913.13;;;18.53;100.00
12664;BME280;6396;58.490;15.528;2023-07-30T08:23:56;99362.34;;;22.01;100.00
12664;BME280;6396;58.490;15.528;2023-07-30T08:26:23;99333.63;;;21.92;100.00
12664;BME280;6396;58.490;15.528;2023-07-30T08:28:59;98973.78;;;19.63;100.00
12664;BME280;6396;58.490;15.528;2023-07-30T08:31:29;99363.66;;;21.88;100.00
12664;BME280;6396;58.490;15.528;2023-07-30T08:33:56;99516.63;;;22.10;100.00
12664;BME280;6396;58.490;15.528;2023-07-30T08:36:23;99486.75;;;21.54;100.00
12664;BME280;6396;58.490;15.528;2023-07-30T08:38:50;99176.13;;;19.77;100.00
12664;BME280;6396;58.490;15.528;2023-07-30T08:41:17;99144.16;;;19.14;100.00
12664;BME280;6396;58.490;15.528;2023-07-30T08:43:51;99112.94;;;19.03;100.00
12664;BME280;6396;58.490;15.528;2023-07-30T08:46:25;98858.34;;;18.27;100.00
12664;BME280;6396;58.490;15.528;2023-07-30T08:48:55;99297.16;;;22.36;100.00
12664;BME280;6396;58.490;15.528;2023-07-30T08:51:23;99278.88;;;22.40;100.00
12664;BME280;6396;58.490;15.528;2023-07-30T08:53:51;99450.63;;;24.36;100.00
12664;BME280;6396;58.490;15.528;2023-07-30T08:56:23;98900.56;;;21.24;100.00
12664;BME280;6396;58.490;15.528;2023-07-30T08:59:06;99122.03;;;23.27;100.00
12664;BME280;6396;58.490;15.528;2023-07-30T09:01:45;98960.78;;;22.55;100.00
12664;BME280;6396;58.490;15.528;2023-07-30T09:04:17;98969.59;;;22.83;100.00
12664;BME280;6396;58.490;15.528;2023-07-30T09:06:48;99133.16;;;24.26;100.00
12664;BME280;6396;58.490;15.528;2023-07-30T09:09:16;98936.94;;;23.11;100.00
12664;BME280;6396;58.490;15.528;2023-07-30T09:11:54;98935.31;;;22.93;100.00
12664;BME280;6396;58.490;15.528;2023-07-30T09:14:22;98916.72;;;22.82;100.00
12664;BME280;6396;58.490;15.528;2023-07-30T09:16:56;99125.56;;;24.30;100.00
12664;BME280;6396;58.490;15.528;2023-07-30T09:19:24;99207.59;;;24.03;100.00
12664;BME280;6396;58.490;15.528;2023-07-30T09:22:01;98985.38;;;21.80;100.00
12664;BME280;6396;58.490;15.528;2023-07-30T09:24:35;99518.09;;;24.88;100.00
12664;BME280;6396;58.490;15.528;2023-07-30T09:27:06;98847.59;;;20.43;100.00
12664;BME280;6396;58.490;15.528;2023-07-30T09:43:12;98781.50;;;20.78;100.00
12664;BME280;6396;58.490;15.528;2023-07-30T09:50:06;99519.03;;;24.44;100.00
12664;BME280;6396;58.490;15.528;2023-07-30T09:59:16;99147.88;;;23.12;89.85
12664;BME280;6396;58.490;15.528;2023-07-30T10:01:57;99588.03;;;25.60;100.00
12664;BME280;6396;58.490;15.528;2023-07-30T10:04:47;98925.50;;;20.97;100.00
12664;BME280;6396;58.490;15.528;2023-07-30T10:07:34;99326.94;;;23.88;94.34
12664;BME280;6396;58.490;15.528;2023-07-30T10:10:18;99533.50;;;25.73;100.00
12664;BME280;6396;58.490;15.528;2023-07-30T10:12:59;99570.38;;;26.07;94.66
12664;BME280;6396;58.490;15.528;2023-07-30T10:15:38;99209.63;;;24.09;93.61
12664;BME280;6396;58.490;15.528;2023-07-30T10:18:06;99538.66;;;26.50;92.30
12664;BME280;6396;58.490;15.528;2023-07-30T10:20:32;99448.59;;;26.31;92.71
12664;BME280;6396;58.490;15.528;2023-07-30T10:23:00;99521.09;;;26.86;92.75
12664;BME280;6396;58.490;15.528;2023-07-30T10:25:29;99523.47;;;26.97;87.56
12664;BME280;6396;58.490;15.528;2023-07-30T10:27:59;99224.22;;;25.08;88.95
12664;BME280;6396;58.490;15.528;2023-07-30T10:30:31;98969.31;;;22.94;95.44
12664;BME280;6396;58.490;15.528;2023-07-30T10:33:09;99153.53;;;24.63;94.99
12664;BME280;6396;58.490;15.528;2023-07-30T10:35:39;99292.28;;;25.61;89.56
12664;BME280;6396;58.490;15.528;2023-07-30T10:38:15;99548.50;;;27.23;87.84
12664;BME280;6396;58.490;15.528;2023-07-30T10:41:01;98908.88;;;23.56;88.18
12664;BME280;6396;58.490;15.528;2023-07-30T10:44:06;99527.19;;;26.88;97.29
12664;BME280;6396;58.490;15.528;2023-07-30T10:46:33;98864.25;;;22.35;100.00
12664;BME280;6396;58.490;15.528;2023-07-30T10:49:04;99537.91;;;26.07;100.00
12664;BME280;6396;58.490;15.528;2023-07-30T10:51:33;98913.53;;;21.73;100.00
12664;BME280;6396;58.490;15.528;2023-07-30T10:54:00;99133.00;;;23.08;100.00
12664;BME280;6396;58.490;15.528;2023-07-30T10:56:27;99545.03;;;25.23;100.00
12664;BME280;6396;58.490;15.528;2023-07-30T10:58:55;98830.59;;;21.25;100.00
12664;BME280;6396;58.490;15.528;2023-07-30T11:01:24;99346.25;;;24.87;100.00
12664;BME280;6396;58.490;15.528;2023-07-30T11:03:57;99060.59;;;22.62;100.00
12664;BME280;6396;58.490;15.528;2023-07-30T11:06:27;99124.75;;;23.09;100.00
12664;BME280;6396;58.490;15.528;2023-07-30T11:08:54;99531.59;;;25.57;100.00
12664;BME280;6396;58.490;15.528;2023-07-30T11:11:22;99073.66;;;22.30;100.00
12664;BME280;6396;58.490;15.528;2023-07-30T11:13:50;99523.44;;;25.31;100.00
12664;BME280;6396;58.490;15.528;2023-07-30T11:16:17;99352.91;;;23.71;100.00
12664;BME280;6396;58.490;15.528;2023-07-30T11:18:44;99272.13;;;23.62;100.00
12664;BME280;6396;58.490;15.528;2023-07-30T11:21:14;98960.31;;;21.26;100.00
12664;BME280;6396;58.490;15.528;2023-07-30T11:23:46;98908.16;;;20.82;100.00
12664;BME280;6396;58.490;15.528;2023-07-30T11:26:15;98900.09;;;21.01;100.00
12664;BME280;6396;58.490;15.528;2023-07-30T11:28:43;98903.03;;;20.98;100.00
12664;BME280;6396;58.490;15.528;2023-07-30T11:31:11;99050.81;;;21.52;100.00
12664;BME280;6396;58.490;15.528;2023-07-30T11:33:40;99422.41;;;23.95;100.00
12664;BME280;6396;58.490;15.528;2023-07-30T11:36:10;99542.09;;;24.74;100.00
12664;BME280;6396;58.490;15.528;2023-07-30T11:38:38;99575.06;;;24.60;100.00
12664;BME280;6396;58.490;15.528;2023-07-30T11:41:08;99340.09;;;23.38;100.00
12664;BME280;6396;58.490;15.528;2023-07-30T11:43:43;99087.09;;;21.66;100.00
12664;BME280;6396;58.490;15.528;2023-07-30T11:46:16;98822.81;;;20.22;100.00
12664;BME280;6396;58.490;15.528;2023-07-30T11:48:48;98978.84;;;21.19;100.00
12664;BME280;6396;58.490;15.528;2023-07-30T11:51:20;98889.13;;;20.20;100.00
12664;BME280;6396;58.490;15.528;2023-07-30T11:53:49;99124.75;;;22.30;100.00
12664;BME280;6396;58.490;15.528;2023-07-30T11:56:28;98911.31;;;20.68;95.51
12664;BME280;6396;58.490;15.528;2023-07-30T11:59:07;99547.69;;;25.15;98.05
12664;BME280;6396;58.490;15.528;2023-07-30T12:01:36;99609.56;;;25.44;100.00
12664;BME280;6396;58.490;15.528;2023-07-30T12:04:05;98941.22;;;21.56;97.16
12664;BME280;6396;58.490;15.528;2023-07-30T12:06:39;99554.28;;;25.72;95.12
12664;BME280;6396;58.490;15.528;2023-07-30T12:09:22;98968.72;;;21.50;85.77
12664;BME280;6396;58.490;15.528;2023-07-30T12:12:06;99592.63;;;25.16;93.83
12664;BME280;6396;58.490;15.528;2023-07-30T12:14:44;98885.25;;;20.97;90.58
12664;BME280;6396;58.490;15.528;2023-07-30T12:17:12;99283.16;;;23.23;99.18
12664;BME280;6396;58.490;15.528;2023-07-30T12:19:42;98968.28;;;22.16;96.67
12664;BME280;6396;58.490;15.528;2023-07-30T12:22:11;98909.06;;;21.46;98.26
12664;BME280;6396;58.490;15.528;2023-07-30T12:24:41;99002.03;;;22.11;99.26
12664;BME280;6396;58.490;15.528;2023-07-30T12:27:13;99557.41;;;25.85;98.86
12664;BME280;6396;58.490;15.528;2023-07-30T12:29:41;99605.50;;;25.66;100.00
12664;BME280;6396;58.490;15.528;2023-07-30T12:32:10;98933.72;;;21.86;99.13
12664;BME280;6396;58.490;15.528;2023-07-30T12:34:37;98957.06;;;21.76;100.00
12664;BME280;6396;58.490;15.528;2023-07-30T12:37:06;99017.69;;;22.15;100.00
12664;BME280;6396;58.490;15.528;2023-07-30T12:39:45;98772.19;;;20.82;100.00
12664;BME280;6396;58.490;15.528;2023-07-30T12:42:28;98852.34;;;20.95;100.00
12664;BME280;6396;58.490;15.528;2023-07-30T12:45:14;99067.13;;;22.14;100.00
12664;BME280;6396;58.490;15.528;2023-07-30T12:48:12;99563.84;;;25.51;100.00
12664;BME280;6396;58.490;15.528;2023-07-30T12:50:39;99419.06;;;24.54;100.00
12664;BME280;6396;58.490;15.528;2023-07-30T12:53:06;99618.13;;;25.57;100.00
12664;BME280;6396;58.490;15.528;2023-07-30T12:55:33;98959.06;;;21.57;100.00
12664;BME280;6396;58.490;15.528;2023-07-30T12:58:02;99452.19;;;24.38;100.00
12664;BME280;6396;58.490;15.528;2023-07-30T13:00:29;99508.31;;;24.52;100.00
12664;BME280;6396;58.490;15.528;2023-07-30T13:02:55;99592.84;;;25.05;100.00
12664;BME280;6396;58.490;15.528;2023-07-30T13:05:22;99521.88;;;24.43;100.00
12664;BME280;6396;58.490;15.528;2023-07-30T13:07:49;99606.31;;;24.80;100.00
12664;BME280;6396;58.490;15.528;2023-07-30T13:10:16;99552.66;;;24.50;100.00
12664;BME280;6396;58.490;15.528;2023-07-30T13:12:43;99493.91;;;24.08;100.00
12664;BME280;6396;58.490;15.528;2023-07-30T13:15:12;99610.97;;;24.60;98.85
12664;BME280;6396;58.490;15.528;2023-07-30T13:17:39;99248.97;;;22.52;100.00
12664;BME280;6396;58.490;15.528;2023-07-30T13:20:07;99465.44;;;23.69;100.00
12664;BME280;6396;58.490;15.528;2023-07-30T13:22:34;99563.72;;;24.39;100.00